• Join FlightAware (Why Join?)
  • Login
  • US Flag 
Rudolph Flight #1: Arrived! 
05:15PM EST


 

Airport Tracker/Info


-or-


 

Live Flight TrackerFlight Track Log ✈ N589H ✈ 04-Mar-2014 ✈ KISP - CYHZ

Flight Track Log - Related Links

Times and Time Zones

All times are in EST time to prevent confusion due to time zone crossing. See the N589H flight status page for this flight to view local times or setup timezone preferences in your user account.

Time Position Orientation Groundspeed Altitude Reporting Facility
EST Latitude Longitude Course Direction KTS MPH feet Rate Location/Type
10:54AM 40.8856 -72.6197 68° East 231 266 9,400  Level Boston Center
10:55AM 40.9114 -72.5361 68° East 257 296 10,800 1,320 Climbing Boston Center
10:56AM 40.9628 -72.4808 39° Northeast 241 277 12,200 1,380 Climbing Boston Center
10:57AM 41.0122 -72.4161 45° Northeast 248 285 13,700 1,200 Climbing Boston Center
10:58AM 41.0636 -72.3469 45° Northeast 261 300 14,700 960 Climbing Boston Center
10:59AM 41.1203 -72.2694 46° Northeast 288 331 15,700 960 Climbing Boston Center
11:00AM 41.1794 -72.1892 46° Northeast 304 350 16,700 960 Climbing Boston Center
11:02AM 41.2392 -72.1064 46° Northeast 310 357 17,700 780 Climbing Boston Center
11:03AM 41.3061 -72.0044 49° Northeast 322 371 18,400 840 Climbing Boston Center
11:04AM 41.3547 -71.8961 59° Northeast 322 371 19,500 1,020 Climbing Boston Center
11:05AM 41.4042 -71.7911 58° Northeast 331 381 20,500 1,020 Climbing Boston Center
11:06AM 41.4550 -71.6853 57° Northeast 338 389 21,600 1,020 Climbing Boston Center
11:07AM 41.5064 -71.5800 57° Northeast 339 390 22,600 1,020 Climbing Boston Center
11:08AM 41.5592 -71.4656 58° Northeast 342 394 23,700 1,020 Climbing Boston Center
11:09AM 41.6114 -71.3536 58° Northeast 352 405 24,700 960 Climbing Boston Center
11:10AM 41.6656 -71.2400 57° Northeast 360 414 25,700 1,020 Climbing Boston Center
11:11AM 41.7208 -71.1236 58° Northeast 368 423 26,800 1,020 Climbing Boston Center
11:12AM 41.7769 -71.0058 57° Northeast 373 429 27,800 960 Climbing Boston Center
11:13AM 41.8308 -70.8853 59° Northeast 377 434 28,800 900 Climbing Boston Center
11:14AM 41.8869 -70.7639 58° Northeast 381 438 29,700 960 Climbing Boston Center
11:15AM 41.9444 -70.6406 58° Northeast 386 444 30,800 600 Climbing Boston Center
11:16AM 42.0017 -70.5167 58° Northeast 389 448 31,000 60 Climbing Boston Center
11:17AM 42.0611 -70.3842 59° Northeast 413 475 31,000  Level Boston Center
11:18AM 42.1244 -70.2464 58° Northeast 430 495 31,000  Level Boston Center
11:19AM 42.2017 -70.0778 58° Northeast 440 506 31,000  Level Boston Center
11:20AM 42.2658 -69.9358 59° Northeast 445 512 31,000  Level Boston Center
11:21AM 42.3311 -69.7917 58° Northeast 450 518 31,000  Level Boston Center
11:22AM 42.3953 -69.6478 59° Northeast 449 517 31,000  Level Boston Center
11:23AM 42.4600 -69.5028 59° Northeast 450 518 31,000  Level Boston Center
11:24AM 42.5333 -69.3436 58° Northeast 457 526 31,000  Level Boston Center
11:25AM 42.5983 -69.1986 59° Northeast 452 520 31,000  Level Boston Center
11:26AM 42.6625 -69.0542 59° Northeast 448 516 31,000  Level Boston Center
11:27AM 42.7267 -68.9083 59° Northeast 450 518 31,000  Level Boston Center
11:28AM 42.7908 -68.7603 59° Northeast 454 522 31,000  Level Boston Center
11:29AM 42.8519 -68.6178 60° Northeast 453 521 31,000  Level Boston Center
11:30AM 42.9156 -68.4703 59° Northeast 453 521 31,000  Level Boston Center
11:31AM 42.9789 -68.3222 60° Northeast 453 521 31,000  Level Boston Center
11:32AM 43.0544 -68.1444 60° Northeast 452 520 31,000  Level Boston Center
11:33AM 43.1167 -67.9969 60° Northeast 450 518 31,000  Level Boston Center
11:34AM 43.1800 -67.8489 60° Northeast 452 520 31,000  Level Boston Center
11:35AM 43.2414 -67.6994 61° Northeast 451 519 31,000  Level Boston Center
11:36AM 43.3022 -67.5511 61° Northeast 450 518 31,000  Level Boston Center
11:37AM 43.3644 -67.4017 60° Northeast 452 520 31,000  Level Boston Center
11:38AM 43.4267 -67.2514 60° Northeast 454 522 31,000  Level Boston Center
11:39AM 43.4886 -67.1003 60° Northeast 455 524 31,000  Level Boston Center
11:40AM 43.5500 -66.8667 70° East 460 529 31,000  Level Moncton Center
11:41AM 43.6333 -66.7333 49° Northeast 460 529 31,000  Level Moncton Center
11:42AM 43.6833 -66.5667 67° East 450 518 31,000  Level Moncton Center
11:43AM 43.7500 -66.4167 58° Northeast 450 518 31,000  Level Moncton Center
11:44AM 43.8000 -66.2667 65° Northeast 450 518 31,000  Level Moncton Center
11:45AM 43.8667 -66.1167 58° Northeast 450 518 31,000  Level Moncton Center
11:46AM 43.9333 -65.9500 61° Northeast 450 518 31,000  Level Moncton Center
11:47AM 44.0000 -65.7833 61° Northeast 450 518 31,000  Level Moncton Center
11:48AM 44.0500 -65.6500 62° Northeast 450 518 31,000 -240 Level Moncton Center
11:49AM 44.1000 -65.5167 62° Northeast 450 518 30,600 -720 Descending Moncton Center
11:50AM 44.1667 -65.3500 61° Northeast 450 518 29,600 -960 Descending Moncton Center
11:51AM 44.2167 -65.1833 67° East 450 518 28,700 -1,020 Descending Moncton Center
11:52AM 44.2833 -65.0500 55° Northeast 450 518 27,600 -1,260 Descending Moncton Center
11:53AM 44.3333 -64.8833 67° East 440 506 26,200 -1,500 Descending Moncton Center
11:54AM 44.4000 -64.7500 55° Northeast 430 495 24,600 -1,500 Descending Moncton Center
11:55AM 44.4500 -64.6000 65° Northeast 420 483 23,200 -1,500 Descending Moncton Center
11:56AM 44.5000 -64.4500 65° Northeast 420 483 21,600 -1,560 Descending Moncton Center
11:57AM 44.5500 -64.3333 59° Northeast 400 460 20,100 -1,620 Descending Moncton Center
11:58AM 44.6000 -64.1667 67° East 400 460 18,400 -2,040 Descending Moncton Center
11:59AM 44.6333 -64.0500 68° East 370 426 16,100 -3,000 Descending Moncton Center
12:00PM 44.6500 -63.9000 81° East 340 391 12,400 -3,540 Descending Moncton Center
12:01PM 44.6667 -63.7833 79° East 320 368 9,100 -3,420 Descending Moncton Center
12:02PM 44.6833 -63.6667 79° East 290 334 5,600 -2,700 Descending Moncton Center
12:03PM 44.7333 -63.6167 35° Northeast 220 253 3,800 -1,560 Descending Moncton Center
12:04PM 44.7833 -63.5667 35° Northeast 200 230 2,500 -1,200 Descending Moncton Center
12:05PM 44.8167 -63.5500 20° North 170 196 1,500 -960 Descending Moncton Center
12:06PM 44.8500 -63.5000 47° Northeast 140 161 600 -360 Descending Moncton Center
12:09PM 44.8667 -63.5000 360° North 10 12 500 -60 Descending Moncton Center